sensor_id;sensor_type;location;lat;lon;timestamp;pressure;altitude;pressure_sealevel;temperature;humidity
21879;BME280;27908;42.708;23.278;2023-03-23T00:02:28;63023.16;;;4.93;100.00
21879;BME280;27908;42.708;23.278;2023-03-23T00:04:54;63037.75;;;4.90;100.00
21879;BME280;27908;42.708;23.278;2023-03-23T00:07:21;63038.69;;;4.86;100.00
21879;BME280;27908;42.708;23.278;2023-03-23T00:09:48;62987.69;;;4.83;100.00
21879;BME280;27908;42.708;23.278;2023-03-23T00:12:19;62998.09;;;4.69;100.00
21879;BME280;27908;42.708;23.278;2023-03-23T00:14:44;63023.25;;;4.64;100.00
21879;BME280;27908;42.708;23.278;2023-03-23T00:17:10;63017.84;;;4.73;100.00
21879;BME280;27908;42.708;23.278;2023-03-23T00:19:38;62981.94;;;4.68;100.00
21879;BME280;27908;42.708;23.278;2023-03-23T00:22:15;62987.22;;;4.49;100.00
21879;BME280;27908;42.708;23.278;2023-03-23T00:24:42;62970.69;;;4.57;100.00
21879;BME280;27908;42.708;23.278;2023-03-23T00:27:09;62991.25;;;4.48;100.00
21879;BME280;27908;42.708;23.278;2023-03-23T00:29:38;63028.72;;;4.57;100.00
21879;BME280;27908;42.708;23.278;2023-03-23T00:32:03;63006.47;;;4.53;100.00
21879;BME280;27908;42.708;23.278;2023-03-23T00:34:29;62978.38;;;4.64;100.00
21879;BME280;27908;42.708;23.278;2023-03-23T00:36:57;62973.63;;;4.50;100.00
21879;BME280;27908;42.708;23.278;2023-03-23T00:39:24;63002.16;;;4.70;100.00
21879;BME280;27908;42.708;23.278;2023-03-23T00:41:51;63014.25;;;4.70;100.00
21879;BME280;27908;42.708;23.278;2023-03-23T00:44:16;63022.16;;;4.58;100.00
21879;BME280;27908;42.708;23.278;2023-03-23T00:46:46;62975.78;;;4.62;100.00
21879;BME280;27908;42.708;23.278;2023-03-23T00:49:15;62951.56;;;4.60;100.00
21879;BME280;27908;42.708;23.278;2023-03-23T00:51:43;62988.84;;;4.55;100.00
21879;BME280;27908;42.708;23.278;2023-03-23T00:54:09;62974.44;;;4.36;100.00
21879;BME280;27908;42.708;23.278;2023-03-23T00:56:35;62963.81;;;4.33;100.00
21879;BME280;27908;42.708;23.278;2023-03-23T00:59:01;62966.94;;;4.41;100.00
21879;BME280;27908;42.708;23.278;2023-03-23T01:01:27;62966.97;;;4.44;100.00
21879;BME280;27908;42.708;23.278;2023-03-23T01:03:52;62969.44;;;4.39;100.00
21879;BME280;27908;42.708;23.278;2023-03-23T01:06:27;62948.63;;;4.28;100.00
21879;BME280;27908;42.708;23.278;2023-03-23T01:08:52;62959.72;;;4.29;100.00
21879;BME280;27908;42.708;23.278;2023-03-23T01:11:19;62976.72;;;4.19;100.00
21879;BME280;27908;42.708;23.278;2023-03-23T01:13:45;62931.84;;;4.20;100.00
21879;BME280;27908;42.708;23.278;2023-03-23T01:16:10;62949.94;;;4.15;100.00
21879;BME280;27908;42.708;23.278;2023-03-23T01:18:37;62943.81;;;4.09;100.00
21879;BME280;27908;42.708;23.278;2023-03-23T01:21:08;62990.28;;;4.15;100.00
21879;BME280;27908;42.708;23.278;2023-03-23T01:23:35;62972.25;;;4.22;100.00
21879;BME280;27908;42.708;23.278;2023-03-23T01:26:08;62974.75;;;4.22;100.00
21879;BME280;27908;42.708;23.278;2023-03-23T01:28:35;62937.66;;;4.01;100.00
21879;BME280;27908;42.708;23.278;2023-03-23T01:31:02;62960.13;;;4.23;100.00
21879;BME280;27908;42.708;23.278;2023-03-23T01:33:29;62956.09;;;4.23;100.00
21879;BME280;27908;42.708;23.278;2023-03-23T01:35:54;62969.31;;;4.29;100.00
21879;BME280;27908;42.708;23.278;2023-03-23T01:38:20;62947.69;;;4.35;100.00
21879;BME280;27908;42.708;23.278;2023-03-23T01:40:46;62984.13;;;4.43;100.00
21879;BME280;27908;42.708;23.278;2023-03-23T01:43:14;62995.75;;;4.45;100.00
21879;BME280;27908;42.708;23.278;2023-03-23T01:45:40;62978.22;;;4.55;100.00
21879;BME280;27908;42.708;23.278;2023-03-23T01:48:17;62965.53;;;4.47;100.00
21879;BME280;27908;42.708;23.278;2023-03-23T01:53:14;62966.56;;;4.51;100.00
21879;BME280;27908;42.708;23.278;2023-03-23T01:55:41;63034.00;;;4.74;100.00
21879;BME280;27908;42.708;23.278;2023-03-23T01:58:09;63035.59;;;4.81;100.00
21879;BME280;27908;42.708;23.278;2023-03-23T02:00:37;63037.78;;;4.93;100.00
21879;BME280;27908;42.708;23.278;2023-03-23T02:03:06;63048.41;;;4.93;100.00
21879;BME280;27908;42.708;23.278;2023-03-23T02:05:37;63037.44;;;5.04;100.00
21879;BME280;27908;42.708;23.278;2023-03-23T02:08:04;63039.41;;;4.99;100.00
21879;BME280;27908;42.708;23.278;2023-03-23T02:10:32;63075.00;;;5.19;100.00
21879;BME280;27908;42.708;23.278;2023-03-23T02:12:59;63070.47;;;5.19;100.00
21879;BME280;27908;42.708;23.278;2023-03-23T02:15:40;63094.72;;;5.21;100.00
21879;BME280;27908;42.708;23.278;2023-03-23T02:34:20;63018.84;;;4.74;100.00
21879;BME280;27908;42.708;23.278;2023-03-23T02:37:03;63015.91;;;4.79;100.00
21879;BME280;27908;42.708;23.278;2023-03-23T02:39:40;63011.13;;;4.62;100.00
21879;BME280;27908;42.708;23.278;2023-03-23T02:42:10;62982.16;;;4.46;100.00
21879;BME280;27908;42.708;23.278;2023-03-23T02:44:40;62997.84;;;4.52;100.00
21879;BME280;27908;42.708;23.278;2023-03-23T02:47:12;62971.06;;;4.48;100.00
21879;BME280;27908;42.708;23.278;2023-03-23T02:49:42;62971.13;;;4.50;100.00
21879;BME280;27908;42.708;23.278;2023-03-23T02:52:16;63010.97;;;4.52;100.00
21879;BME280;27908;42.708;23.278;2023-03-23T02:54:44;62982.72;;;4.52;100.00
21879;BME280;27908;42.708;23.278;2023-03-23T02:57:11;62975.09;;;4.47;100.00
21879;BME280;27908;42.708;23.278;2023-03-23T02:59:36;62930.06;;;4.37;100.00
21879;BME280;27908;42.708;23.278;2023-03-23T03:02:07;62925.00;;;4.35;100.00
21879;BME280;27908;42.708;23.278;2023-03-23T03:04:36;62942.13;;;4.32;100.00
21879;BME280;27908;42.708;23.278;2023-03-23T03:07:33;63008.22;;;4.35;100.00
21879;BME280;27908;42.708;23.278;2023-03-23T03:12:56;62980.38;;;4.27;100.00
21879;BME280;27908;42.708;23.278;2023-03-23T03:15:54;62954.34;;;4.05;100.00
21879;BME280;27908;42.708;23.278;2023-03-23T03:18:56;62887.72;;;3.99;100.00
21879;BME280;27908;42.708;23.278;2023-03-23T03:21:19;62886.06;;;3.88;100.00
21879;BME280;27908;42.708;23.278;2023-03-23T03:23:50;62927.09;;;4.03;100.00
21879;BME280;27908;42.708;23.278;2023-03-23T03:26:19;62877.09;;;3.93;100.00
21879;BME280;27908;42.708;23.278;2023-03-23T03:28:46;62917.22;;;3.81;100.00
21879;BME280;27908;42.708;23.278;2023-03-23T03:31:18;62888.47;;;3.78;100.00
21879;BME280;27908;42.708;23.278;2023-03-23T03:33:45;62897.63;;;3.87;100.00
21879;BME280;27908;42.708;23.278;2023-03-23T03:36:17;62889.06;;;3.86;100.00
21879;BME280;27908;42.708;23.278;2023-03-23T03:38:46;62919.44;;;3.95;100.00
21879;BME280;27908;42.708;23.278;2023-03-23T03:41:12;62925.94;;;3.92;100.00
21879;BME280;27908;42.708;23.278;2023-03-23T03:43:38;62926.72;;;3.76;100.00
21879;BME280;27908;42.708;23.278;2023-03-23T03:46:03;62946.00;;;3.87;100.00
21879;BME280;27908;42.708;23.278;2023-03-23T03:48:29;62920.34;;;3.89;100.00
21879;BME280;27908;42.708;23.278;2023-03-23T03:50:55;62902.66;;;3.84;100.00
21879;BME280;27908;42.708;23.278;2023-03-23T03:53:25;62907.56;;;3.77;100.00
21879;BME280;27908;42.708;23.278;2023-03-23T03:55:50;62878.34;;;3.75;100.00
21879;BME280;27908;42.708;23.278;2023-03-23T03:58:23;62860.50;;;3.60;100.00
21879;BME280;27908;42.708;23.278;2023-03-23T04:00:50;62856.38;;;3.54;100.00
21879;BME280;27908;42.708;23.278;2023-03-23T04:03:15;62870.50;;;3.53;100.00
21879;BME280;27908;42.708;23.278;2023-03-23T04:05:42;62857.69;;;3.38;100.00
21879;BME280;27908;42.708;23.278;2023-03-23T04:08:10;62888.41;;;3.39;100.00
21879;BME280;27908;42.708;23.278;2023-03-23T04:10:36;62821.00;;;3.44;100.00
21879;BME280;27908;42.708;23.278;2023-03-23T04:13:02;62878.50;;;3.51;100.00
21879;BME280;27908;42.708;23.278;2023-03-23T04:15:30;62896.09;;;3.49;100.00
21879;BME280;27908;42.708;23.278;2023-03-23T04:17:56;62853.50;;;3.63;100.00
21879;BME280;27908;42.708;23.278;2023-03-23T04:20:23;62874.69;;;3.67;100.00
21879;BME280;27908;42.708;23.278;2023-03-23T04:22:49;62844.94;;;3.65;100.00
21879;BME280;27908;42.708;23.278;2023-03-23T04:25:16;62867.38;;;3.48;100.00
21879;BME280;27908;42.708;23.278;2023-03-23T04:27:42;62893.69;;;3.56;100.00
21879;BME280;27908;42.708;23.278;2023-03-23T04:30:09;62879.41;;;3.45;100.00
21879;BME280;27908;42.708;23.278;2023-03-23T04:32:36;62892.69;;;3.55;100.00
21879;BME280;27908;42.708;23.278;2023-03-23T04:35:06;62882.13;;;3.57;100.00
21879;BME280;27908;42.708;23.278;2023-03-23T04:37:31;62898.25;;;3.58;100.00
21879;BME280;27908;42.708;23.278;2023-03-23T04:39:59;62858.91;;;3.54;100.00
21879;BME280;27908;42.708;23.278;2023-03-23T04:42:30;62876.00;;;3.51;100.00
21879;BME280;27908;42.708;23.278;2023-03-23T04:44:59;62856.72;;;3.42;100.00
21879;BME280;27908;42.708;23.278;2023-03-23T04:47:26;62832.34;;;3.26;100.00
21879;BME280;27908;42.708;23.278;2023-03-23T04:49:57;62877.81;;;3.38;100.00
21879;BME280;27908;42.708;23.278;2023-03-23T04:52:25;62877.28;;;3.35;100.00
21879;BME280;27908;42.708;23.278;2023-03-23T04:54:51;62836.38;;;3.27;100.00
21879;BME280;27908;42.708;23.278;2023-03-23T04:57:17;62874.31;;;3.40;100.00
21879;BME280;27908;42.708;23.278;2023-03-23T04:59:43;62838.59;;;3.42;100.00
21879;BME280;27908;42.708;23.278;2023-03-23T05:02:10;62837.50;;;3.36;100.00
21879;BME280;27908;42.708;23.278;2023-03-23T05:04:36;62869.97;;;3.53;100.00
21879;BME280;27908;42.708;23.278;2023-03-23T05:07:03;62917.97;;;3.65;100.00
21879;BME280;27908;42.708;23.278;2023-03-23T05:09:28;62884.28;;;3.69;100.00
21879;BME280;27908;42.708;23.278;2023-03-23T05:11:53;62875.75;;;3.70;100.00
21879;BME280;27908;42.708;23.278;2023-03-23T05:14:19;62893.25;;;3.60;100.00
21879;BME280;27908;42.708;23.278;2023-03-23T05:16:46;62842.75;;;3.51;100.00
21879;BME280;27908;42.708;23.278;2023-03-23T05:19:14;62889.63;;;3.54;100.00
21879;BME280;27908;42.708;23.278;2023-03-23T05:21:39;62917.00;;;3.66;100.00
21879;BME280;27908;42.708;23.278;2023-03-23T05:24:05;62877.13;;;3.59;100.00
21879;BME280;27908;42.708;23.278;2023-03-23T05:26:31;62907.34;;;3.59;100.00
21879;BME280;27908;42.708;23.278;2023-03-23T05:28:57;62871.22;;;3.71;100.00
21879;BME280;27908;42.708;23.278;2023-03-23T05:31:24;62924.25;;;3.81;100.00
21879;BME280;27908;42.708;23.278;2023-03-23T05:33:51;62932.91;;;3.87;100.00
21879;BME280;27908;42.708;23.278;2023-03-23T05:36:16;62919.38;;;3.90;100.00
21879;BME280;27908;42.708;23.278;2023-03-23T05:38:42;62979.81;;;3.88;100.00
21879;BME280;27908;42.708;23.278;2023-03-23T05:41:11;62904.84;;;3.98;100.00
21879;BME280;27908;42.708;23.278;2023-03-23T05:43:37;62934.16;;;4.02;100.00
21879;BME280;27908;42.708;23.278;2023-03-23T05:46:03;62947.38;;;4.10;100.00
21879;BME280;27908;42.708;23.278;2023-03-23T05:48:28;62945.31;;;4.08;100.00
21879;BME280;27908;42.708;23.278;2023-03-23T05:50:54;62969.06;;;4.12;100.00
21879;BME280;27908;42.708;23.278;2023-03-23T05:53:20;63001.94;;;4.19;100.00
21879;BME280;27908;42.708;23.278;2023-03-23T05:55:45;63005.91;;;4.16;100.00
21879;BME280;27908;42.708;23.278;2023-03-23T05:58:12;62957.59;;;4.20;100.00
21879;BME280;27908;42.708;23.278;2023-03-23T06:00:37;62987.53;;;4.34;100.00
21879;BME280;27908;42.708;23.278;2023-03-23T06:03:02;62998.78;;;4.45;100.00
21879;BME280;27908;42.708;23.278;2023-03-23T06:05:28;62931.50;;;4.31;100.00
21879;BME280;27908;42.708;23.278;2023-03-23T06:07:54;63019.28;;;4.67;100.00
21879;BME280;27908;42.708;23.278;2023-03-23T06:10:20;62984.06;;;4.75;100.00
21879;BME280;27908;42.708;23.278;2023-03-23T06:12:45;63022.47;;;4.80;100.00
21879;BME280;27908;42.708;23.278;2023-03-23T06:15:11;63005.97;;;4.91;100.00
21879;BME280;27908;42.708;23.278;2023-03-23T06:17:37;63009.50;;;4.92;100.00
21879;BME280;27908;42.708;23.278;2023-03-23T06:20:04;63029.81;;;4.99;100.00
21879;BME280;27908;42.708;23.278;2023-03-23T06:22:34;63064.31;;;5.13;100.00
21879;BME280;27908;42.708;23.278;2023-03-23T06:25:00;63019.53;;;5.26;100.00
21879;BME280;27908;42.708;23.278;2023-03-23T06:27:25;63110.09;;;5.35;100.00
21879;BME280;27908;42.708;23.278;2023-03-23T06:29:51;63095.41;;;5.33;100.00
21879;BME280;27908;42.708;23.278;2023-03-23T06:32:16;63094.56;;;5.47;100.00
21879;BME280;27908;42.708;23.278;2023-03-23T06:34:42;63076.94;;;5.50;100.00
21879;BME280;27908;42.708;23.278;2023-03-23T06:37:10;63083.91;;;5.42;100.00
21879;BME280;27908;42.708;23.278;2023-03-23T06:39:36;63136.69;;;5.61;100.00
21879;BME280;27908;42.708;23.278;2023-03-23T06:42:03;63161.28;;;5.82;100.00
21879;BME280;27908;42.708;23.278;2023-03-23T06:44:29;63146.25;;;5.95;100.00
21879;BME280;27908;42.708;23.278;2023-03-23T06:46:54;63231.94;;;6.09;100.00
21879;BME280;27908;42.708;23.278;2023-03-23T06:49:20;63210.38;;;6.25;100.00
21879;BME280;27908;42.708;23.278;2023-03-23T06:51:45;63215.56;;;6.35;100.00
21879;BME280;27908;42.708;23.278;2023-03-23T06:54:10;63231.97;;;6.50;100.00
21879;BME280;27908;42.708;23.278;2023-03-23T06:56:36;63255.50;;;6.68;100.00
21879;BME280;27908;42.708;23.278;2023-03-23T06:59:02;63262.25;;;6.82;100.00
21879;BME280;27908;42.708;23.278;2023-03-23T07:01:28;63300.38;;;6.92;100.00
21879;BME280;27908;42.708;23.278;2023-03-23T07:03:54;63297.44;;;7.01;100.00
21879;BME280;27908;42.708;23.278;2023-03-23T07:06:23;63285.44;;;7.14;100.00
21879;BME280;27908;42.708;23.278;2023-03-23T07:08:49;63303.66;;;7.12;100.00
21879;BME280;27908;42.708;23.278;2023-03-23T07:11:15;63299.69;;;7.18;100.00
21879;BME280;27908;42.708;23.278;2023-03-23T07:13:40;63289.16;;;7.27;100.00
21879;BME280;27908;42.708;23.278;2023-03-23T07:16:06;63368.81;;;7.36;100.00
21879;BME280;27908;42.708;23.278;2023-03-23T07:18:32;63339.50;;;7.42;100.00
21879;BME280;27908;42.708;23.278;2023-03-23T07:20:58;63352.38;;;7.56;100.00
21879;BME280;27908;42.708;23.278;2023-03-23T07:23:23;63357.16;;;7.76;100.00
21879;BME280;27908;42.708;23.278;2023-03-23T07:25:49;63438.44;;;7.85;100.00
21879;BME280;27908;42.708;23.278;2023-03-23T07:28:15;63418.91;;;8.03;100.00
21879;BME280;27908;42.708;23.278;2023-03-23T07:30:41;63441.91;;;8.16;100.00
21879;BME280;27908;42.708;23.278;2023-03-23T07:33:07;63468.91;;;8.24;100.00
21879;BME280;27908;42.708;23.278;2023-03-23T07:35:34;63450.34;;;8.43;100.00
21879;BME280;27908;42.708;23.278;2023-03-23T07:38:00;63475.78;;;8.46;100.00
21879;BME280;27908;42.708;23.278;2023-03-23T07:40:26;63468.41;;;8.68;100.00
21879;BME280;27908;42.708;23.278;2023-03-23T07:42:56;63500.09;;;8.81;100.00
21879;BME280;27908;42.708;23.278;2023-03-23T07:45:22;63563.72;;;8.91;100.00
21879;BME280;27908;42.708;23.278;2023-03-23T07:47:48;63525.72;;;9.01;100.00
21879;BME280;27908;42.708;23.278;2023-03-23T07:50:14;63570.16;;;9.17;100.00
21879;BME280;27908;42.708;23.278;2023-03-23T07:52:39;63583.88;;;9.18;100.00
21879;BME280;27908;42.708;23.278;2023-03-23T07:55:07;63637.09;;;9.44;100.00
21879;BME280;27908;42.708;23.278;2023-03-23T07:57:34;63586.44;;;9.61;100.00
21879;BME280;27908;42.708;23.278;2023-03-23T07:59:59;63593.59;;;9.63;100.00
21879;BME280;27908;42.708;23.278;2023-03-23T08:02:25;63649.28;;;9.85;100.00
21879;BME280;27908;42.708;23.278;2023-03-23T08:04:52;63673.84;;;9.92;100.00
21879;BME280;27908;42.708;23.278;2023-03-23T08:07:19;63690.75;;;10.00;100.00
21879;BME280;27908;42.708;23.278;2023-03-23T08:09:45;63695.47;;;10.12;100.00
21879;BME280;27908;42.708;23.278;2023-03-23T08:12:12;63690.06;;;10.29;100.00
21879;BME280;27908;42.708;23.278;2023-03-23T08:14:38;63756.53;;;10.49;100.00
21879;BME280;27908;42.708;23.278;2023-03-23T08:17:03;63769.03;;;10.73;100.00
21879;BME280;27908;42.708;23.278;2023-03-23T08:19:29;63773.38;;;10.97;100.00
21879;BME280;27908;42.708;23.278;2023-03-23T08:21:54;63814.91;;;11.17;100.00
21879;BME280;27908;42.708;23.278;2023-03-23T08:24:20;63843.13;;;11.29;98.71
21879;BME280;27908;42.708;23.278;2023-03-23T08:26:45;63846.19;;;11.30;96.62
21879;BME280;27908;42.708;23.278;2023-03-23T08:29:11;63836.00;;;11.30;98.25
21879;BME280;27908;42.708;23.278;2023-03-23T08:31:38;63834.13;;;11.45;96.96
21879;BME280;27908;42.708;23.278;2023-03-23T08:34:04;63876.59;;;11.54;99.76
21879;BME280;27908;42.708;23.278;2023-03-23T08:36:31;63935.63;;;11.81;98.93
21879;BME280;27908;42.708;23.278;2023-03-23T08:38:57;63952.19;;;11.99;95.29
21879;BME280;27908;42.708;23.278;2023-03-23T08:41:23;63963.63;;;12.17;95.04
21879;BME280;27908;42.708;23.278;2023-03-23T08:43:49;64008.25;;;12.31;93.13
21879;BME280;27908;42.708;23.278;2023-03-23T08:46:14;64002.94;;;12.57;85.32
21879;BME280;27908;42.708;23.278;2023-03-23T08:48:40;64079.19;;;12.64;83.07
21879;BME280;27908;42.708;23.278;2023-03-23T08:51:06;64068.59;;;12.76;83.04
21879;BME280;27908;42.708;23.278;2023-03-23T08:53:32;64084.72;;;12.96;86.29
21879;BME280;27908;42.708;23.278;2023-03-23T08:56:09;64124.25;;;13.10;80.67
21879;BME280;27908;42.708;23.278;2023-03-23T08:58:36;64077.66;;;13.07;76.68
21879;BME280;27908;42.708;23.278;2023-03-23T09:01:02;64111.50;;;13.12;74.30
21879;BME280;27908;42.708;23.278;2023-03-23T09:03:28;64130.66;;;13.30;74.94
21879;BME280;27908;42.708;23.278;2023-03-23T09:05:58;64144.56;;;13.39;76.68
21879;BME280;27908;42.708;23.278;2023-03-23T09:08:24;64169.81;;;13.53;77.30
21879;BME280;27908;42.708;23.278;2023-03-23T09:10:50;64212.09;;;13.76;75.75
21879;BME280;27908;42.708;23.278;2023-03-23T09:13:16;64275.22;;;13.85;72.35
21879;BME280;27908;42.708;23.278;2023-03-23T09:15:41;64219.25;;;13.76;69.78
21879;BME280;27908;42.708;23.278;2023-03-23T09:18:07;64199.44;;;13.45;68.57
21879;BME280;27908;42.708;23.278;2023-03-23T09:20:32;64172.75;;;13.41;70.25
21879;BME280;27908;42.708;23.278;2023-03-23T09:22:59;64203.25;;;13.65;71.46
21879;BME280;27908;42.708;23.278;2023-03-23T09:25:26;64174.09;;;13.69;71.46
21879;BME280;27908;42.708;23.278;2023-03-23T09:27:55;64220.41;;;13.89;74.60
21879;BME280;27908;42.708;23.278;2023-03-23T09:30:23;64262.72;;;14.10;71.60
21879;BME280;27908;42.708;23.278;2023-03-23T09:32:50;64279.28;;;14.23;70.64
21879;BME280;27908;42.708;23.278;2023-03-23T09:35:16;64287.00;;;14.25;68.49
21879;BME280;27908;42.708;23.278;2023-03-23T09:37:43;64300.00;;;14.40;71.32
21879;BME280;27908;42.708;23.278;2023-03-23T09:40:15;64348.34;;;14.52;72.69
21879;BME280;27908;42.708;23.278;2023-03-23T09:46:08;64319.75;;;14.64;68.20
21879;BME280;27908;42.708;23.278;2023-03-23T09:48:55;64374.94;;;14.87;68.59
21879;BME280;27908;42.708;23.278;2023-03-23T09:51:35;64407.94;;;15.01;69.13
21879;BME280;27908;42.708;23.278;2023-03-23T09:54:21;64467.69;;;15.17;66.29
21879;BME280;27908;42.708;23.278;2023-03-23T09:56:49;64452.47;;;15.29;64.54
21879;BME280;27908;42.708;23.278;2023-03-23T10:01:53;64515.50;;;15.60;64.44
21879;BME280;27908;42.708;23.278;2023-03-23T10:06:46;64522.28;;;15.68;64.38
21879;BME280;27908;42.708;23.278;2023-03-23T10:09:15;64542.44;;;15.78;63.39
21879;BME280;27908;42.708;23.278;2023-03-23T10:22:29;64613.47;;;16.23;62.75
21879;BME280;27908;42.708;23.278;2023-03-23T10:27:44;64682.34;;;16.59;59.40
21879;BME280;27908;42.708;23.278;2023-03-23T10:33:01;64661.28;;;16.64;57.34
21879;BME280;27908;42.708;23.278;2023-03-23T10:35:39;64714.97;;;16.73;59.01
21879;BME280;27908;42.708;23.278;2023-03-23T10:38:18;64774.03;;;17.02;60.36
21879;BME280;27908;42.708;23.278;2023-03-23T10:40:50;64763.25;;;17.04;56.20
21879;BME280;27908;42.708;23.278;2023-03-23T10:43:16;64739.91;;;16.92;56.98
21879;BME280;27908;42.708;23.278;2023-03-23T10:45:45;64714.88;;;16.68;57.88
21879;BME280;27908;42.708;23.278;2023-03-23T10:48:30;64771.38;;;16.97;56.45
21879;BME280;27908;42.708;23.278;2023-03-23T10:50:59;64799.50;;;17.19;56.76
21879;BME280;27908;42.708;23.278;2023-03-23T10:53:31;64806.06;;;17.10;57.31
21879;BME280;27908;42.708;23.278;2023-03-23T10:56:00;64833.31;;;17.44;56.87
21879;BME280;27908;42.708;23.278;2023-03-23T10:58:31;64863.84;;;17.53;55.62
21879;BME280;27908;42.708;23.278;2023-03-23T11:01:03;64894.59;;;17.77;57.00
21879;BME280;27908;42.708;23.278;2023-03-23T11:06:00;64866.56;;;17.63;56.73
21879;BME280;27908;42.708;23.278;2023-03-23T11:08:31;64878.56;;;17.74;58.66
21879;BME280;27908;42.708;23.278;2023-03-23T11:11:29;64876.03;;;17.77;54.79
21879;BME280;27908;42.708;23.278;2023-03-23T11:14:01;64956.09;;;17.86;54.98
21879;BME280;27908;42.708;23.278;2023-03-23T11:16:32;64941.66;;;17.87;55.80
21879;BME280;27908;42.708;23.278;2023-03-23T11:19:00;64934.38;;;17.81;53.15
21879;BME280;27908;42.708;23.278;2023-03-23T11:21:27;64926.53;;;17.73;53.46
21879;BME280;27908;42.708;23.278;2023-03-23T11:23:58;64908.09;;;17.85;51.62
21879;BME280;27908;42.708;23.278;2023-03-23T11:26:33;64815.59;;;17.29;52.96
21879;BME280;27908;42.708;23.278;2023-03-23T11:31:32;64969.88;;;18.12;55.12
21879;BME280;27908;42.708;23.278;2023-03-23T11:34:02;64987.91;;;18.09;54.39
21879;BME280;27908;42.708;23.278;2023-03-23T11:36:41;64989.94;;;18.09;54.41
21879;BME280;27908;42.708;23.278;2023-03-23T11:41:45;64926.25;;;17.92;51.44
21879;BME280;27908;42.708;23.278;2023-03-23T11:44:11;64913.28;;;17.87;51.51
21879;BME280;27908;42.708;23.278;2023-03-23T11:46:49;64964.22;;;18.14;52.00
21879;BME280;27908;42.708;23.278;2023-03-23T11:49:26;64845.75;;;17.48;52.52
21879;BME280;27908;42.708;23.278;2023-03-23T11:52:01;64898.63;;;17.69;51.93
21879;BME280;27908;42.708;23.278;2023-03-23T11:54:38;64943.91;;;18.02;52.61
21879;BME280;27908;42.708;23.278;2023-03-23T11:57:09;64995.22;;;18.16;55.21
21879;BME280;27908;42.708;23.278;2023-03-23T11:59:37;65055.31;;;18.31;52.03
21879;BME280;27908;42.708;23.278;2023-03-23T12:10:12;65061.59;;;18.76;50.21
21879;BME280;27908;42.708;23.278;2023-03-23T12:15:27;65152.50;;;19.08;50.14
21879;BME280;27908;42.708;23.278;2023-03-23T12:20:39;65185.16;;;19.15;49.63
21879;BME280;27908;42.708;23.278;2023-03-23T12:36:44;65045.41;;;18.63;48.39
21879;BME280;27908;42.708;23.278;2023-03-23T12:42:14;65123.94;;;18.98;49.57
21879;BME280;27908;42.708;23.278;2023-03-23T12:44:46;65140.13;;;19.11;50.17
21879;BME280;27908;42.708;23.278;2023-03-23T12:47:21;65192.97;;;19.20;50.39
21879;BME280;27908;42.708;23.278;2023-03-23T12:52:49;65186.94;;;19.31;49.40
21879;BME280;27908;42.708;23.278;2023-03-23T12:58:28;65172.22;;;19.15;47.41
21879;BME280;27908;42.708;23.278;2023-03-23T13:01:19;65062.91;;;18.58;46.95
21879;BME280;27908;42.708;23.278;2023-03-23T13:06:41;65169.09;;;19.14;47.88
21879;BME280;27908;42.708;23.278;2023-03-23T13:12:20;65216.56;;;19.05;46.38
21879;BME280;27908;42.708;23.278;2023-03-23T13:17:38;65093.94;;;18.60;46.13
21879;BME280;27908;42.708;23.278;2023-03-23T13:25:54;65225.88;;;19.43;47.43
21879;BME280;27908;42.708;23.278;2023-03-23T13:28:27;65234.28;;;19.51;49.18
21879;BME280;27908;42.708;23.278;2023-03-23T13:31:10;65308.41;;;19.62;47.04
21879;BME280;27908;42.708;23.278;2023-03-23T13:33:37;65187.56;;;19.39;46.22
21879;BME280;27908;42.708;23.278;2023-03-23T13:36:12;65236.13;;;19.36;46.54
21879;BME280;27908;42.708;23.278;2023-03-23T13:38:44;65166.50;;;19.12;47.21
21879;BME280;27908;42.708;23.278;2023-03-23T13:41:13;65233.56;;;19.38;47.79
21879;BME280;27908;42.708;23.278;2023-03-23T13:43:42;65275.56;;;19.80;46.51
21879;BME280;27908;42.708;23.278;2023-03-23T13:46:29;65421.19;;;20.25;46.32
21879;BME280;27908;42.708;23.278;2023-03-23T13:49:14;65450.69;;;20.57;43.82
21879;BME280;27908;42.708;23.278;2023-03-23T13:54:23;65382.50;;;20.34;45.24
21879;BME280;27908;42.708;23.278;2023-03-23T13:56:58;65463.34;;;20.69;45.83
21879;BME280;27908;42.708;23.278;2023-03-23T14:01:56;65536.34;;;20.99;43.32
21879;BME280;27908;42.708;23.278;2023-03-23T14:04:29;65664.25;;;21.48;43.82
21879;BME280;27908;42.708;23.278;2023-03-23T14:07:09;65764.88;;;22.06;42.94
21879;BME280;27908;42.708;23.278;2023-03-23T14:09:41;65876.75;;;22.45;42.77
21879;BME280;27908;42.708;23.278;2023-03-23T14:12:27;66022.53;;;23.10;40.50
21879;BME280;27908;42.708;23.278;2023-03-23T14:15:00;66108.53;;;23.44;39.29
21879;BME280;27908;42.708;23.278;2023-03-23T14:17:40;66061.88;;;23.57;38.12
21879;BME280;27908;42.708;23.278;2023-03-23T14:20:20;65898.88;;;22.60;38.06
21879;BME280;27908;42.708;23.278;2023-03-23T14:22:54;66117.88;;;23.43;38.45
21879;BME280;27908;42.708;23.278;2023-03-23T14:25:21;66099.53;;;23.65;37.44
21879;BME280;27908;42.708;23.278;2023-03-23T14:27:50;66355.19;;;24.33;36.80
21879;BME280;27908;42.708;23.278;2023-03-23T14:30:22;66449.25;;;24.91;36.38
21879;BME280;27908;42.708;23.278;2023-03-23T14:32:48;66680.22;;;25.94;34.66
21879;BME280;27908;42.708;23.278;2023-03-23T14:37:46;67065.59;;;27.13;33.31
21879;BME280;27908;42.708;23.278;2023-03-23T14:40:15;67037.97;;;27.18;33.25
21879;BME280;27908;42.708;23.278;2023-03-23T14:42:41;67091.63;;;27.27;33.26
21879;BME280;27908;42.708;23.278;2023-03-23T14:45:12;67132.59;;;27.31;32.59
21879;BME280;27908;42.708;23.278;2023-03-23T14:47:43;67362.56;;;28.19;31.67
21879;BME280;27908;42.708;23.278;2023-03-23T14:50:48;67609.13;;;29.03;31.32
21879;BME280;27908;42.708;23.278;2023-03-23T14:53:19;67738.78;;;29.49;29.61